createdAt,value
2023-04-22T00:00:38.663Z,5.99
2023-04-22T00:03:06.547Z,5.91
2023-04-22T00:05:34.372Z,5.88
2023-04-22T00:08:03.440Z,5.83
2023-04-22T00:10:31.193Z,5.83
2023-04-22T00:12:58.848Z,5.83
2023-04-22T00:15:27.060Z,5.76
2023-04-22T00:17:54.853Z,5.75
2023-04-22T00:20:22.792Z,5.76
2023-04-22T00:22:50.656Z,5.76
2023-04-22T00:25:20.337Z,5.68
2023-04-22T00:27:48.030Z,5.77
2023-04-22T00:30:16.330Z,5.82
2023-04-22T00:32:44.069Z,5.83
2023-04-22T00:35:11.770Z,5.76
2023-04-22T00:37:39.472Z,5.69
2023-04-22T00:40:08.561Z,5.68
2023-04-22T00:42:38.133Z,5.67
2023-04-22T00:45:10.843Z,5.62
2023-04-22T00:47:39.034Z,5.63
2023-04-22T00:50:08.218Z,5.58
2023-04-22T00:52:36.055Z,5.62
2023-04-22T00:55:03.796Z,5.63
2023-04-22T00:57:31.919Z,5.61
2023-04-22T01:00:01.085Z,5.54
2023-04-22T01:02:29.315Z,5.44
2023-04-22T01:04:57.174Z,5.41
2023-04-22T01:07:25.010Z,5.39
2023-04-22T01:09:52.704Z,5.33
2023-04-22T01:12:20.463Z,5.24
2023-04-22T01:14:48.165Z,5.20
2023-04-22T01:17:19.364Z,5.16
2023-04-22T01:19:47.710Z,5.11
2023-04-22T01:22:16.116Z,5.07
2023-04-22T01:24:45.196Z,4.94
2023-04-22T01:27:13.335Z,4.94
2023-04-22T01:29:41.284Z,4.82
2023-04-22T01:32:09.299Z,4.77
2023-04-22T01:34:37.081Z,4.78
2023-04-22T01:37:04.769Z,4.77
2023-04-22T01:39:32.944Z,4.74
2023-04-22T01:42:03.497Z,4.78
2023-04-22T01:44:31.312Z,4.74
2023-04-22T01:46:59.137Z,4.72
2023-04-22T01:49:26.816Z,4.72
2023-04-22T01:51:54.533Z,4.70
2023-04-22T01:54:22.250Z,4.69
2023-04-22T01:56:54.510Z,4.76
2023-04-22T01:59:23.633Z,4.74
2023-04-22T02:01:51.615Z,4.78
2023-04-22T02:04:19.434Z,4.77
2023-04-22T02:06:47.130Z,4.68
2023-04-22T02:09:14.796Z,4.62
2023-04-22T02:11:42.418Z,4.58
2023-04-22T02:14:10.151Z,4.48
2023-04-22T02:16:39.124Z,4.42
2023-04-22T02:19:06.772Z,4.45
2023-04-22T02:21:34.861Z,4.45
2023-04-22T02:24:02.527Z,4.41
2023-04-22T02:26:30.812Z,4.37
2023-04-22T02:28:58.495Z,4.26
2023-04-22T02:31:26.319Z,4.17
2023-04-22T02:33:55.392Z,4.13
2023-04-22T02:36:23.054Z,4.11
2023-04-22T02:38:50.848Z,4.09
2023-04-22T02:41:18.489Z,3.98
2023-04-22T02:43:46.357Z,4.08
2023-04-22T02:46:16.193Z,4.07
2023-04-22T02:48:44.049Z,4.00
2023-04-22T02:51:13.288Z,3.96
2023-04-22T02:53:40.977Z,3.97
2023-04-22T02:56:09.158Z,3.93
2023-04-22T02:58:36.854Z,3.96
2023-04-22T03:01:04.611Z,3.88
2023-04-22T03:03:32.942Z,3.81
2023-04-22T03:06:00.801Z,3.72
2023-04-22T03:08:29.950Z,3.70
2023-04-22T03:10:57.724Z,3.70
2023-04-22T03:13:25.567Z,3.67
2023-04-22T03:15:53.267Z,3.60
2023-04-22T03:18:20.943Z,3.52
2023-04-22T03:20:48.735Z,3.54
2023-04-22T03:23:16.523Z,3.51
2023-04-22T03:25:45.568Z,3.49
2023-04-22T03:28:13.221Z,3.46
2023-04-22T03:30:41.005Z,3.42
2023-04-22T03:33:08.765Z,3.34
2023-04-22T03:35:36.434Z,3.34
2023-04-22T03:38:04.083Z,3.25
2023-04-22T03:40:31.793Z,3.23
2023-04-22T03:43:00.793Z,3.24
2023-04-22T03:45:30.482Z,3.20
2023-04-22T03:47:58.225Z,3.18
2023-04-22T03:50:26.068Z,3.11
2023-04-22T03:52:53.711Z,3.05
2023-04-22T03:55:21.708Z,3.07
2023-04-22T03:57:49.389Z,3.07
2023-04-22T04:00:18.688Z,3.07
2023-04-22T04:02:46.621Z,2.97
2023-04-22T04:05:14.663Z,2.92
2023-04-22T04:07:42.592Z,2.90
2023-04-22T04:10:12.753Z,2.94
2023-04-22T04:12:40.386Z,2.95
2023-04-22T04:15:09.023Z,2.90
2023-04-22T04:17:38.145Z,2.86
2023-04-22T04:20:07.182Z,2.86
2023-04-22T04:22:35.174Z,2.80
2023-04-22T04:25:03.376Z,2.69
2023-04-22T04:27:34.909Z,2.64
2023-04-22T04:30:04.338Z,2.63
2023-04-22T04:32:34.227Z,2.69
2023-04-22T04:35:03.404Z,2.75
2023-04-22T04:37:31.099Z,2.82
2023-04-22T04:39:59.772Z,2.88
2023-04-22T04:42:27.413Z,2.92
2023-04-22T04:44:58.374Z,3.00
2023-04-22T04:47:26.090Z,3.13
2023-04-22T04:49:54.352Z,3.19
2023-04-22T04:52:23.418Z,3.28
2023-04-22T04:54:51.090Z,3.42
2023-04-22T04:57:18.744Z,3.51
2023-04-22T04:59:46.382Z,3.52
2023-04-22T05:02:14.105Z,3.52
2023-04-22T05:04:42.094Z,3.56
2023-04-22T05:07:09.929Z,3.62
2023-04-22T05:09:39.114Z,3.73
2023-04-22T05:12:07.118Z,3.83
2023-04-22T05:14:34.863Z,4.02
2023-04-22T05:17:02.980Z,4.17
2023-04-22T05:19:31.108Z,4.33
2023-04-22T05:21:58.741Z,4.48
2023-04-22T05:24:26.453Z,4.61
2023-04-22T05:26:55.472Z,4.75
2023-04-22T05:29:23.179Z,4.88
2023-04-22T05:31:51.214Z,5.00
2023-04-22T05:34:18.897Z,5.15
2023-04-22T05:36:46.637Z,5.37
2023-04-22T05:39:14.318Z,5.64
2023-04-22T05:41:42.527Z,5.94
2023-04-22T05:44:12.258Z,6.32
2023-04-22T05:46:40.027Z,6.60
2023-04-22T05:49:07.747Z,6.76
2023-04-22T05:51:35.385Z,6.92
2023-04-22T05:54:03.190Z,7.08
2023-04-22T05:56:31.096Z,7.20
2023-04-22T05:58:58.754Z,7.28
2023-04-22T06:01:27.798Z,7.44
2023-04-22T06:03:55.850Z,7.66
2023-04-22T06:06:23.713Z,7.93
2023-04-22T06:08:51.325Z,8.34
2023-04-22T06:11:19.235Z,8.74
2023-04-22T06:13:46.894Z,9.23
2023-04-22T06:16:14.553Z,9.77
2023-04-22T06:18:44.366Z,10.25
2023-04-22T06:21:12.400Z,10.59
2023-04-22T06:23:40.130Z,10.98
2023-04-22T06:26:07.944Z,11.30
2023-04-22T06:28:35.655Z,11.57
2023-04-22T06:31:03.455Z,11.73
2023-04-22T06:33:31.142Z,11.84
2023-04-22T06:36:00.444Z,11.99
2023-04-22T06:38:28.196Z,12.13
2023-04-22T06:40:55.858Z,12.20
2023-04-22T06:43:23.553Z,12.30
2023-04-22T06:45:51.241Z,12.43
2023-04-22T06:48:18.917Z,12.55
2023-04-22T06:50:46.670Z,12.65
2023-04-22T06:53:15.707Z,12.76
2023-04-22T06:55:43.480Z,12.86
2023-04-22T06:58:11.164Z,13.01
2023-04-22T07:00:38.919Z,13.16
2023-04-22T07:03:06.678Z,13.38
2023-04-22T07:05:34.662Z,13.57
2023-04-22T07:08:02.530Z,13.61
2023-04-22T07:10:31.631Z,13.64
2023-04-22T07:12:59.307Z,13.68
2023-04-22T07:15:26.981Z,13.77
2023-04-22T07:17:54.929Z,13.90
2023-04-22T07:20:23.059Z,13.88
2023-04-22T07:22:52.248Z,13.86
2023-04-22T07:25:19.882Z,13.94
2023-04-22T07:27:48.935Z,14.03
2023-04-22T07:30:16.984Z,14.18
2023-04-22T07:32:45.847Z,14.23
2023-04-22T07:35:14.570Z,14.27
2023-04-22T07:37:42.267Z,14.43
2023-04-22T07:40:11.787Z,14.52
2023-04-22T07:42:39.893Z,14.54
2023-04-22T07:45:09.801Z,14.58
2023-04-22T07:47:37.563Z,14.73
2023-04-22T07:50:06.269Z,14.94
2023-04-22T07:52:33.893Z,15.08
2023-04-22T07:55:01.919Z,15.23
2023-04-22T07:57:29.648Z,15.33
2023-04-22T07:59:57.324Z,15.44
2023-04-22T08:02:26.597Z,15.52
2023-04-22T08:04:54.336Z,15.55
2023-04-22T08:09:52.694Z,15.63
2023-04-22T08:12:20.347Z,15.73
2023-04-22T08:14:48.031Z,15.88
2023-04-22T08:17:15.864Z,15.97
2023-04-22T08:19:44.844Z,16.07
2023-04-22T08:22:13.618Z,16.26
2023-04-22T08:24:41.302Z,16.48
2023-04-22T08:27:09.245Z,16.68
2023-04-22T08:29:38.028Z,16.91
2023-04-22T08:32:06.075Z,17.00
2023-04-22T08:34:33.734Z,17.24
2023-04-22T08:37:03.324Z,17.42
2023-04-22T08:39:31.105Z,17.50
2023-04-22T08:41:59.212Z,17.58
2023-04-22T08:44:26.987Z,17.78
2023-04-22T08:46:55.895Z,18.05
2023-04-22T08:49:24.610Z,18.14
2023-04-22T08:51:53.005Z,18.17
2023-04-22T08:54:22.033Z,18.28
2023-04-22T08:56:51.105Z,18.29
2023-04-22T08:59:20.451Z,18.39
2023-04-22T09:01:53.088Z,18.30
2023-04-22T09:04:21.070Z,18.41
2023-04-22T09:06:48.953Z,18.47
2023-04-22T09:09:17.300Z,18.56
2023-04-22T09:11:46.480Z,18.74
2023-04-22T09:14:14.154Z,18.82
2023-04-22T09:16:43.679Z,19.18
2023-04-22T09:19:14.872Z,19.09
2023-04-22T09:21:43.085Z,19.18
2023-04-22T09:24:12.474Z,19.23
2023-04-22T09:26:41.833Z,19.45
2023-04-22T09:29:15.476Z,19.67
2023-04-22T09:31:43.302Z,19.57
2023-04-22T09:34:10.973Z,19.64
2023-04-22T09:36:38.651Z,19.79
2023-04-22T09:39:08.713Z,19.53
2023-04-22T09:41:38.638Z,19.44
2023-04-22T09:44:10.051Z,19.57
2023-04-22T09:46:39.012Z,19.86
2023-04-22T09:49:06.667Z,20.07
2023-04-22T09:51:34.538Z,20.21
2023-04-22T09:54:06.236Z,20.36
2023-04-22T09:56:49.277Z,20.54
2023-04-22T09:59:21.644Z,20.65
2023-04-22T10:01:51.784Z,20.87
2023-04-22T10:04:21.472Z,21.03
2023-04-22T10:06:49.612Z,21.39
2023-04-22T10:09:19.932Z,21.61
2023-04-22T10:11:48.573Z,21.71
2023-04-22T10:14:16.411Z,21.61
2023-04-22T10:16:46.886Z,21.56
2023-04-22T10:19:21.366Z,22.09
2023-04-22T10:21:53.108Z,22.38
2023-04-22T10:24:23.054Z,22.34
2023-04-22T10:26:52.824Z,22.96
2023-04-22T10:29:22.972Z,23.22
2023-04-22T10:31:57.328Z,23.25
2023-04-22T10:34:26.540Z,23.34
2023-04-22T10:37:02.303Z,23.33
2023-04-22T10:39:30.458Z,23.50
2023-04-22T10:42:06.592Z,24.05
2023-04-22T10:44:50.878Z,23.99
2023-04-22T10:47:29.613Z,24.02
2023-04-22T10:50:17.321Z,23.47
2023-04-22T10:52:48.330Z,23.71
2023-04-22T10:55:16.281Z,23.90
2023-04-22T10:57:45.415Z,24.52
2023-04-22T11:00:41.719Z,24.97
2023-04-22T11:03:18.381Z,25.01
2023-04-22T11:05:47.785Z,25.03
2023-04-22T11:08:23.505Z,24.94
2023-04-22T11:10:53.488Z,25.22
2023-04-22T11:13:22.333Z,25.32
2023-04-22T11:15:51.295Z,25.51
2023-04-22T11:18:21.474Z,25.43
2023-04-22T11:20:51.174Z,25.55
2023-04-22T11:23:21.897Z,25.73
2023-04-22T11:25:49.646Z,24.86
2023-04-22T11:28:17.532Z,24.86
2023-04-22T11:30:45.962Z,24.67
2023-04-22T11:33:16.656Z,25.08
2023-04-22T11:35:44.468Z,25.30
2023-04-22T11:38:13.486Z,25.64
2023-04-22T11:40:46.626Z,26.16
2023-04-22T11:43:15.090Z,26.39
2023-04-22T11:45:42.993Z,25.51
2023-04-22T11:48:12.089Z,25.64
2023-04-22T11:50:41.356Z,25.87
2023-04-22T11:53:16.792Z,24.62
2023-04-22T11:55:44.779Z,24.27
2023-04-22T11:58:14.906Z,23.74
2023-04-22T12:00:44.756Z,24.01
2023-04-22T12:03:16.755Z,24.86
2023-04-22T12:05:46.195Z,25.24
2023-04-22T12:08:17.014Z,25.47
2023-04-22T12:10:46.513Z,25.55
2023-04-22T12:13:21.177Z,25.23
2023-04-22T12:15:50.345Z,25.38
2023-04-22T12:18:17.980Z,25.48
2023-04-22T12:20:45.657Z,25.77
2023-04-22T12:23:16.291Z,25.99
2023-04-22T12:25:44.796Z,25.72
2023-04-22T12:28:13.364Z,24.43
2023-04-22T12:30:41.022Z,24.70
2023-04-22T12:33:09.367Z,24.46
2023-04-22T12:35:37.114Z,25.03
2023-04-22T12:38:04.915Z,24.97
2023-04-22T12:40:33.981Z,25.07
2023-04-22T12:43:05.793Z,25.12
2023-04-22T12:45:33.508Z,25.29
2023-04-22T12:48:01.205Z,25.01
2023-04-22T12:50:28.872Z,24.73
2023-04-22T12:52:56.486Z,24.33
2023-04-22T12:55:24.229Z,24.08
2023-04-22T12:57:53.366Z,24.45
2023-04-22T13:00:21.425Z,24.55
2023-04-22T13:02:50.010Z,24.39
2023-04-22T13:05:19.165Z,24.33
2023-04-22T13:07:59.642Z,24.44
2023-04-22T13:10:34.210Z,24.25
2023-04-22T13:13:17.054Z,23.94
2023-04-22T13:15:46.974Z,24.09
2023-04-22T13:18:14.925Z,24.54
2023-04-22T13:20:42.702Z,24.67
2023-04-22T13:23:10.753Z,24.89
2023-04-22T13:25:38.448Z,26.19
2023-04-22T13:28:07.508Z,26.83
2023-04-22T13:30:35.189Z,26.45
2023-04-22T13:33:03.236Z,25.61
2023-04-22T13:35:31.753Z,25.11
2023-04-22T13:37:59.425Z,25.08
2023-04-22T13:40:27.652Z,24.91
2023-04-22T13:42:55.391Z,25.06
2023-04-22T13:45:28.483Z,24.61
2023-04-22T13:47:56.277Z,24.40
2023-04-22T13:50:24.671Z,24.35
2023-04-22T13:52:53.079Z,24.09
2023-04-22T13:55:21.176Z,23.63
2023-04-22T13:57:49.513Z,23.48
2023-04-22T14:00:17.692Z,23.80
2023-04-22T14:02:46.849Z,23.89
2023-04-22T14:05:14.627Z,24.02
2023-04-22T14:07:42.379Z,24.21
2023-04-22T14:10:12.131Z,23.99
2023-04-22T14:12:40.040Z,23.78
2023-04-22T14:15:10.834Z,23.81
2023-04-22T14:17:38.911Z,23.61
2023-04-22T14:20:10.730Z,23.30
2023-04-22T14:22:38.483Z,22.97
2023-04-22T14:25:07.271Z,23.05
2023-04-22T14:27:35.043Z,22.90
2023-04-22T14:30:04.358Z,22.83
2023-04-22T14:32:32.111Z,22.81
2023-04-22T14:34:59.858Z,22.78
2023-04-22T14:37:28.943Z,22.82
2023-04-22T14:39:57.430Z,22.79
2023-04-22T14:42:25.342Z,22.91
2023-04-22T14:44:53.016Z,23.07
2023-04-22T14:47:20.761Z,22.95
2023-04-22T14:49:48.432Z,22.90
2023-04-22T14:52:16.224Z,23.00
2023-04-22T14:54:45.658Z,23.03
2023-04-22T14:57:13.379Z,22.85
2023-04-22T14:59:41.384Z,22.83
2023-04-22T15:02:15.700Z,22.71
2023-04-22T15:04:43.913Z,22.73
2023-04-22T15:07:11.599Z,22.70
2023-04-22T15:09:39.736Z,22.70
2023-04-22T15:12:09.151Z,22.62
2023-04-22T15:14:37.182Z,22.48
2023-04-22T15:17:05.981Z,22.45
2023-04-22T15:19:33.736Z,22.28
2023-04-22T15:22:01.457Z,22.21
2023-04-22T15:24:29.239Z,22.41
2023-04-22T15:26:58.026Z,22.49
2023-04-22T15:29:28.347Z,22.53
2023-04-22T15:31:56.759Z,22.59
2023-04-22T15:34:25.066Z,22.63
2023-04-22T15:36:52.814Z,22.73
2023-04-22T15:39:20.613Z,22.68
2023-04-22T15:41:48.355Z,22.87
2023-04-22T15:44:16.827Z,22.93
2023-04-22T15:46:46.798Z,22.92
2023-04-22T15:49:14.736Z,23.04
2023-04-22T15:51:43.202Z,23.07
2023-04-22T15:54:11.032Z,23.03
2023-04-22T15:56:38.705Z,23.10
2023-04-22T15:59:06.856Z,23.24
2023-04-22T16:01:34.628Z,23.03
2023-04-22T16:04:03.933Z,22.79
2023-04-22T16:06:32.158Z,22.53
2023-04-22T16:08:59.921Z,22.39
2023-04-22T16:11:27.546Z,22.51
2023-04-22T16:13:55.287Z,22.87
2023-04-22T16:16:23.753Z,23.02
2023-04-22T16:18:51.500Z,22.81
2023-04-22T16:21:32.127Z,22.50
2023-04-22T16:24:00.778Z,22.35
2023-04-22T16:26:28.554Z,22.13
2023-04-22T16:28:56.279Z,21.97
2023-04-22T16:31:24.056Z,21.82
2023-04-22T16:33:52.319Z,21.75
2023-04-22T16:36:21.510Z,21.65
2023-04-22T16:38:49.301Z,21.59
2023-04-22T16:41:17.016Z,21.52
2023-04-22T16:43:44.698Z,21.48
2023-04-22T16:46:12.451Z,21.45
2023-04-22T16:48:40.315Z,21.40
2023-04-22T16:51:08.083Z,21.36
2023-04-22T16:53:37.407Z,21.29
2023-04-22T16:56:05.828Z,21.29
2023-04-22T16:58:33.513Z,21.31
2023-04-22T17:01:01.155Z,21.34
2023-04-22T17:03:29.019Z,21.29
2023-04-22T17:05:56.856Z,21.22
2023-04-22T17:08:24.549Z,21.07
2023-04-22T17:10:53.695Z,20.95
2023-04-22T17:13:21.360Z,20.69
2023-04-22T17:15:49.073Z,20.59
2023-04-22T17:18:16.757Z,20.38
2023-04-22T17:20:44.503Z,20.21
2023-04-22T17:23:12.258Z,20.06
2023-04-22T17:25:39.930Z,19.92
2023-04-22T17:28:10.960Z,19.73
2023-04-22T17:30:38.981Z,19.54
2023-04-22T17:33:06.851Z,19.36
2023-04-22T17:35:34.623Z,19.17
2023-04-22T17:38:02.313Z,18.96
2023-04-22T17:40:30.037Z,18.77
2023-04-22T17:42:57.702Z,18.58
2023-04-22T17:45:26.841Z,18.42
2023-04-22T17:47:54.611Z,18.30
2023-04-22T17:50:23.301Z,18.19
2023-04-22T17:52:51.061Z,18.15
2023-04-22T17:55:18.813Z,17.99
2023-04-22T17:57:46.486Z,17.89
2023-04-22T18:00:15.420Z,17.77
2023-04-22T18:02:44.753Z,17.66
2023-04-22T18:05:12.817Z,17.52
2023-04-22T18:07:40.625Z,17.46
2023-04-22T18:10:10.124Z,17.30
2023-04-22T18:12:37.851Z,17.15
2023-04-22T18:15:06.556Z,17.01
2023-04-22T18:17:34.510Z,16.87
2023-04-22T18:20:16.813Z,16.82
2023-04-22T18:22:46.623Z,16.67
2023-04-22T18:25:14.300Z,16.55
2023-04-22T18:27:42.082Z,16.43
2023-04-22T18:30:10.541Z,16.33
2023-04-22T18:32:38.603Z,16.24
2023-04-22T18:35:09.253Z,16.17
2023-04-22T18:37:36.954Z,16.10
2023-04-22T18:40:05.807Z,16.01
2023-04-22T18:42:33.565Z,16.01
2023-04-22T18:45:03.717Z,15.96
2023-04-22T18:47:32.428Z,16.02
2023-04-22T18:50:00.316Z,16.05
2023-04-22T18:52:29.499Z,16.03
2023-04-22T18:54:57.151Z,15.92
2023-04-22T18:57:24.991Z,15.80
2023-04-22T18:59:52.674Z,15.68
2023-04-22T19:02:20.484Z,15.71
2023-04-22T19:04:48.347Z,15.61
2023-04-22T19:07:16.070Z,15.49
2023-04-22T19:09:45.186Z,15.46
2023-04-22T19:12:14.720Z,15.45
2023-04-22T19:14:42.833Z,15.41
2023-04-22T19:17:10.970Z,15.36
2023-04-22T19:19:39.010Z,15.30
2023-04-22T19:22:07.078Z,15.21
2023-04-22T19:24:35.307Z,15.15
2023-04-22T19:27:06.949Z,15.11
2023-04-22T19:29:34.701Z,15.05
2023-04-22T19:32:03.374Z,15.01
2023-04-22T19:34:31.365Z,15.02
2023-04-22T19:36:59.050Z,15.01
2023-04-22T19:39:26.918Z,14.97
2023-04-22T19:41:54.666Z,14.91
2023-04-22T19:44:23.753Z,14.91
2023-04-22T19:46:52.269Z,14.98
2023-04-22T19:49:21.024Z,15.06
2023-04-22T19:51:49.083Z,15.18
2023-04-22T19:54:18.251Z,15.51
2023-04-22T19:56:46.635Z,15.65
2023-04-22T19:59:15.384Z,15.85
2023-04-22T20:01:54.593Z,16.16
2023-04-22T20:04:22.942Z,16.35
2023-04-22T20:06:51.865Z,16.34
2023-04-22T20:09:19.669Z,16.30
2023-04-22T20:11:48.517Z,16.31
2023-04-22T20:14:16.859Z,16.26
2023-04-22T20:16:47.748Z,16.22
2023-04-22T20:19:15.913Z,16.24
2023-04-22T20:21:45.292Z,16.22
2023-04-22T20:24:18.991Z,16.21
2023-04-22T20:26:47.766Z,16.10
2023-04-22T20:29:17.284Z,16.11
2023-04-22T20:31:46.902Z,16.08
2023-04-22T20:34:14.771Z,16.02
2023-04-22T20:36:43.610Z,15.90
2023-04-22T20:39:14.148Z,15.82
2023-04-22T20:41:42.439Z,15.75
2023-04-22T20:44:10.591Z,15.66
2023-04-22T20:46:38.827Z,15.56
2023-04-22T20:49:08.298Z,15.46
2023-04-22T20:51:36.103Z,15.48
2023-04-22T20:54:06.172Z,15.42
2023-04-22T20:56:37.564Z,15.40
2023-04-22T20:59:05.399Z,15.31
2023-04-22T21:01:33.115Z,15.15
2023-04-22T21:04:02.244Z,15.06
2023-04-22T21:06:33.947Z,14.96
2023-04-22T21:09:02.442Z,15.02
2023-04-22T21:11:30.733Z,14.86
2023-04-22T21:13:58.882Z,14.87
2023-04-22T21:16:31.386Z,14.78
2023-04-22T21:19:00.642Z,14.74
2023-04-22T21:21:33.906Z,14.69
2023-04-22T21:24:02.352Z,14.70
2023-04-22T21:26:30.635Z,14.73
2023-04-22T21:28:59.372Z,14.69
2023-04-22T21:31:27.464Z,14.61
2023-04-22T21:33:55.579Z,14.62
2023-04-22T21:39:18.207Z,14.63
2023-04-22T21:41:46.160Z,14.60
2023-04-22T21:44:13.851Z,14.53
2023-04-22T21:46:41.648Z,14.57
2023-04-22T21:49:09.377Z,14.48
2023-04-22T21:51:37.149Z,14.44
2023-04-22T21:54:05.362Z,14.35
2023-04-22T21:56:35.852Z,14.18
2023-04-22T21:59:03.618Z,14.04
2023-04-22T22:01:31.340Z,13.89
2023-04-22T22:03:59.159Z,13.73
2023-04-22T22:06:26.987Z,13.55
2023-04-22T22:08:54.671Z,13.35
2023-04-22T22:13:54.273Z,12.86
2023-04-22T22:16:23.059Z,12.85
2023-04-22T22:18:51.860Z,12.91
2023-04-22T22:21:19.650Z,12.92
2023-04-22T22:23:47.313Z,12.97
2023-04-22T22:26:15.024Z,12.88
2023-04-22T22:28:42.705Z,12.88
2023-04-22T22:31:11.756Z,12.88
2023-04-22T22:33:39.399Z,12.90
2023-04-22T22:36:08.586Z,12.85
2023-04-22T22:38:36.214Z,12.74
2023-04-22T22:41:03.880Z,12.65
2023-04-22T22:43:31.737Z,12.59
2023-04-22T22:45:59.512Z,12.60
2023-04-22T22:48:28.664Z,12.52
2023-04-22T22:50:56.600Z,12.51
2023-04-22T22:58:53.040Z,12.39
2023-04-22T23:01:20.968Z,12.32
2023-04-22T23:03:49.006Z,12.30
2023-04-22T23:06:17.485Z,12.29
2023-04-22T23:08:45.108Z,12.24
2023-04-22T23:11:13.210Z,12.19
2023-04-22T23:13:41.037Z,12.20
2023-04-22T23:16:10.061Z,12.18
2023-04-22T23:18:38.751Z,12.20
2023-04-22T23:21:08.117Z,12.26
2023-04-22T23:23:37.702Z,12.31
2023-04-22T23:26:05.994Z,12.37
2023-04-22T23:28:34.177Z,12.51
2023-04-22T23:31:04.263Z,12.64
2023-04-22T23:33:37.687Z,12.80
2023-04-22T23:36:09.739Z,12.97
2023-04-22T23:38:37.432Z,13.06
2023-04-22T23:41:05.331Z,13.15
2023-04-22T23:43:32.949Z,13.22
2023-04-22T23:46:00.713Z,13.25
2023-04-22T23:48:28.428Z,13.36
2023-04-22T23:50:57.515Z,13.41
2023-04-22T23:53:25.180Z,13.41
2023-04-22T23:55:53.408Z,13.41
2023-04-22T23:58:21.400Z,13.39
